sensor_id;sensor_type;location;lat;lon;timestamp;pressure;altitude;pressure_sealevel;temperature;humidity
63405;BME280;49541;57.840;12.306;2023-03-01T00:03:13;102121.81;;;0.33;76.35
63405;BME280;49541;57.840;12.306;2023-03-01T00:08:14;102123.44;;;0.38;75.68
63405;BME280;49541;57.840;12.306;2023-03-01T00:13:14;102122.25;;;0.53;74.71
63405;BME280;49541;57.840;12.306;2023-03-01T00:18:14;102124.50;;;0.73;73.19
63405;BME280;49541;57.840;12.306;2023-03-01T00:23:14;102137.59;;;0.73;72.19
63405;BME280;49541;57.840;12.306;2023-03-01T00:28:14;102128.25;;;1.00;71.16
63405;BME280;49541;57.840;12.306;2023-03-01T00:33:14;102138.50;;;1.11;69.23
63405;BME280;49541;57.840;12.306;2023-03-01T00:38:15;102127.97;;;0.74;69.91
63405;BME280;49541;57.840;12.306;2023-03-01T00:43:15;102132.47;;;0.67;69.75
63405;BME280;49541;57.840;12.306;2023-03-01T00:48:15;102142.44;;;0.92;69.25
63405;BME280;49541;57.840;12.306;2023-03-01T00:53:15;102140.06;;;0.79;68.78
63405;BME280;49541;57.840;12.306;2023-03-01T00:58:15;102141.19;;;0.68;68.94
63405;BME280;49541;57.840;12.306;2023-03-01T01:03:16;102128.94;;;0.68;69.08
63405;BME280;49541;57.840;12.306;2023-03-01T01:08:16;102127.38;;;0.61;68.57
63405;BME280;49541;57.840;12.306;2023-03-01T01:13:16;102127.41;;;0.58;69.01
63405;BME280;49541;57.840;12.306;2023-03-01T01:18:16;102123.16;;;1.32;67.38
63405;BME280;49541;57.840;12.306;2023-03-01T01:23:16;102117.16;;;0.88;68.10
63405;BME280;49541;57.840;12.306;2023-03-01T01:28:16;102114.88;;;1.11;68.06
63405;BME280;49541;57.840;12.306;2023-03-01T01:33:17;102109.75;;;0.66;71.23
63405;BME280;49541;57.840;12.306;2023-03-01T01:38:17;102105.50;;;0.18;73.76
63405;BME280;49541;57.840;12.306;2023-03-01T01:48:21;102116.44;;;-0.06;74.48
63405;BME280;49541;57.840;12.306;2023-03-01T01:53:22;102115.56;;;-0.07;74.96
63405;BME280;49541;57.840;12.306;2023-03-01T01:58:22;102114.97;;;-0.21;74.93
63405;BME280;49541;57.840;12.306;2023-03-01T02:03:25;102114.91;;;-0.19;75.89
63405;BME280;49541;57.840;12.306;2023-03-01T02:08:29;102101.88;;;-0.21;74.72
63405;BME280;49541;57.840;12.306;2023-03-01T02:13:31;102101.75;;;-0.15;73.98
63405;BME280;49541;57.840;12.306;2023-03-01T02:18:32;102092.81;;;-0.05;73.60
63405;BME280;49541;57.840;12.306;2023-03-01T02:23:32;102101.69;;;-0.12;73.60
63405;BME280;49541;57.840;12.306;2023-03-01T02:28:36;102091.53;;;-0.30;74.60
63405;BME280;49541;57.840;12.306;2023-03-01T02:33:37;102093.09;;;-0.18;74.09
63405;BME280;49541;57.840;12.306;2023-03-01T02:38:39;102087.09;;;-0.76;75.39
63405;BME280;49541;57.840;12.306;2023-03-01T02:43:39;102087.94;;;-0.76;75.61
63405;BME280;49541;57.840;12.306;2023-03-01T02:48:41;102086.41;;;-0.89;78.08
63405;BME280;49541;57.840;12.306;2023-03-01T02:53:48;102094.78;;;-1.25;78.78
63405;BME280;49541;57.840;12.306;2023-03-01T02:58:53;102093.16;;;-1.35;80.77
63405;BME280;49541;57.840;12.306;2023-03-01T03:03:54;102097.28;;;-1.18;81.18
63405;BME280;49541;57.840;12.306;2023-03-01T03:08:54;102095.47;;;-1.13;80.88
63405;BME280;49541;57.840;12.306;2023-03-01T03:13:54;102089.00;;;-0.88;80.03
63405;BME280;49541;57.840;12.306;2023-03-01T03:18:55;102087.25;;;-0.89;78.94
63405;BME280;49541;57.840;12.306;2023-03-01T03:24:05;102084.72;;;-0.93;78.36
63405;BME280;49541;57.840;12.306;2023-03-01T03:29:05;102097.53;;;-0.76;77.06
63405;BME280;49541;57.840;12.306;2023-03-01T03:34:05;102086.28;;;-0.30;73.56
63405;BME280;49541;57.840;12.306;2023-03-01T03:39:05;102093.22;;;-0.79;73.79
63405;BME280;49541;57.840;12.306;2023-03-01T03:44:06;102083.09;;;-0.99;74.08
63405;BME280;49541;57.840;12.306;2023-03-01T03:49:06;102083.34;;;-1.19;74.43
63405;BME280;49541;57.840;12.306;2023-03-01T03:54:06;102076.28;;;-1.11;73.51
63405;BME280;49541;57.840;12.306;2023-03-01T03:59:06;102075.09;;;-0.91;72.56
63405;BME280;49541;57.840;12.306;2023-03-01T04:04:06;102086.22;;;-0.77;71.96
63405;BME280;49541;57.840;12.306;2023-03-01T04:09:07;102082.94;;;-0.90;71.38
63405;BME280;49541;57.840;12.306;2023-03-01T04:14:07;102080.59;;;-1.08;71.20
63405;BME280;49541;57.840;12.306;2023-03-01T04:19:08;102081.50;;;-1.12;70.61
63405;BME280;49541;57.840;12.306;2023-03-01T04:24:09;102093.69;;;-1.10;70.25
63405;BME280;49541;57.840;12.306;2023-03-01T04:29:09;102087.72;;;-1.19;70.04
63405;BME280;49541;57.840;12.306;2023-03-01T04:34:09;102079.66;;;-1.06;69.37
63405;BME280;49541;57.840;12.306;2023-03-01T04:39:10;102075.66;;;-1.30;68.63
63405;BME280;49541;57.840;12.306;2023-03-01T04:44:12;102072.09;;;-1.24;68.49
63405;BME280;49541;57.840;12.306;2023-03-01T04:49:13;102057.28;;;-1.25;68.44
63405;BME280;49541;57.840;12.306;2023-03-01T04:54:13;102066.47;;;-1.60;68.34
63405;BME280;49541;57.840;12.306;2023-03-01T04:59:13;102054.19;;;-1.53;68.21
63405;BME280;49541;57.840;12.306;2023-03-01T05:04:13;102054.91;;;-1.40;67.58
63405;BME280;49541;57.840;12.306;2023-03-01T05:09:13;102039.56;;;-1.65;67.65
63405;BME280;49541;57.840;12.306;2023-03-01T05:14:14;102042.16;;;-1.65;67.75
63405;BME280;49541;57.840;12.306;2023-03-01T05:19:14;102038.91;;;-1.17;66.48
63405;BME280;49541;57.840;12.306;2023-03-01T05:24:22;102036.81;;;-1.57;66.67
63405;BME280;49541;57.840;12.306;2023-03-01T05:29:23;102042.16;;;-1.65;67.60
63405;BME280;49541;57.840;12.306;2023-03-01T05:34:27;102042.88;;;-1.52;67.54
63405;BME280;49541;57.840;12.306;2023-03-01T05:39:28;102039.84;;;-1.88;67.52
63405;BME280;49541;57.840;12.306;2023-03-01T05:44:29;102043.59;;;-2.12;68.20
63405;BME280;49541;57.840;12.306;2023-03-01T05:49:29;102042.63;;;-2.05;68.22
63405;BME280;49541;57.840;12.306;2023-03-01T05:54:30;102060.91;;;-2.03;68.20
63405;BME280;49541;57.840;12.306;2023-03-01T05:59:30;102067.84;;;-2.02;67.56
63405;BME280;49541;57.840;12.306;2023-03-01T06:04:30;102075.78;;;-2.12;67.83
63405;BME280;49541;57.840;12.306;2023-03-01T06:09:30;102081.97;;;-2.20;68.32
63405;BME280;49541;57.840;12.306;2023-03-01T06:14:30;102074.91;;;-2.11;68.19
63405;BME280;49541;57.840;12.306;2023-03-01T06:19:31;102082.75;;;-2.15;68.37
63405;BME280;49541;57.840;12.306;2023-03-01T06:24:31;102088.88;;;-2.18;67.95
63405;BME280;49541;57.840;12.306;2023-03-01T06:29:31;102090.69;;;-2.23;68.23
63405;BME280;49541;57.840;12.306;2023-03-01T06:34:31;102085.47;;;-2.24;68.24
63405;BME280;49541;57.840;12.306;2023-03-01T06:39:32;102108.00;;;-2.16;67.99
63405;BME280;49541;57.840;12.306;2023-03-01T06:44:32;102097.66;;;-2.27;68.76
63405;BME280;49541;57.840;12.306;2023-03-01T06:49:33;102100.63;;;-1.74;68.09
63405;BME280;49541;57.840;12.306;2023-03-01T06:54:33;102108.00;;;-2.16;69.53
63405;BME280;49541;57.840;12.306;2023-03-01T06:59:33;102120.84;;;-1.91;69.12
63405;BME280;49541;57.840;12.306;2023-03-01T07:04:33;102121.69;;;-1.89;69.57
63405;BME280;49541;57.840;12.306;2023-03-01T07:09:34;102116.59;;;-2.04;70.96
63405;BME280;49541;57.840;12.306;2023-03-01T07:14:34;102115.84;;;-2.16;72.72
63405;BME280;49541;57.840;12.306;2023-03-01T07:19:34;102120.94;;;-2.03;71.98
63405;BME280;49541;57.840;12.306;2023-03-01T07:24:34;102128.56;;;-1.82;72.20
63405;BME280;49541;57.840;12.306;2023-03-01T07:29:34;102143.03;;;-1.53;74.14
63405;BME280;49541;57.840;12.306;2023-03-01T07:34:36;102152.31;;;-1.28;75.00
63405;BME280;49541;57.840;12.306;2023-03-01T07:39:36;102145.00;;;-1.01;76.28
63405;BME280;49541;57.840;12.306;2023-03-01T07:44:37;102150.09;;;-0.93;76.90
63405;BME280;49541;57.840;12.306;2023-03-01T07:49:37;102163.31;;;-1.04;77.81
63405;BME280;49541;57.840;12.306;2023-03-01T07:54:37;102164.00;;;-0.90;79.72
63405;BME280;49541;57.840;12.306;2023-03-01T07:59:37;102167.63;;;-1.00;81.28
63405;BME280;49541;57.840;12.306;2023-03-01T08:04:38;102158.31;;;-0.59;81.08
63405;BME280;49541;57.840;12.306;2023-03-01T08:09:38;102158.31;;;-0.59;82.01
63405;BME280;49541;57.840;12.306;2023-03-01T08:14:38;102156.13;;;-0.32;82.20
63405;BME280;49541;57.840;12.306;2023-03-01T08:19:38;102159.47;;;0.27;82.01
63405;BME280;49541;57.840;12.306;2023-03-01T08:24:38;102153.91;;;-0.03;81.95
63405;BME280;49541;57.840;12.306;2023-03-01T08:29:38;102152.78;;;0.56;80.47
63405;BME280;49541;57.840;12.306;2023-03-01T08:34:39;102151.06;;;0.55;81.39
63405;BME280;49541;57.840;12.306;2023-03-01T08:39:39;102153.56;;;0.61;81.17
63405;BME280;49541;57.840;12.306;2023-03-01T08:44:39;102161.84;;;0.83;82.02
63405;BME280;49541;57.840;12.306;2023-03-01T08:49:39;102159.81;;;0.97;81.66
63405;BME280;49541;57.840;12.306;2023-03-01T08:54:39;102164.84;;;1.07;82.67
63405;BME280;49541;57.840;12.306;2023-03-01T08:59:39;102158.81;;;1.76;80.70
63405;BME280;49541;57.840;12.306;2023-03-01T09:04:40;102153.47;;;1.81;79.92
63405;BME280;49541;57.840;12.306;2023-03-01T09:09:41;102147.97;;;1.90;80.97
63405;BME280;49541;57.840;12.306;2023-03-01T09:14:41;102152.78;;;2.40;77.62
63405;BME280;49541;57.840;12.306;2023-03-01T09:19:42;102136.91;;;2.74;77.80
63405;BME280;49541;57.840;12.306;2023-03-01T09:24:42;102145.66;;;2.75;76.31
63405;BME280;49541;57.840;12.306;2023-03-01T09:29:42;102150.78;;;2.79;78.26
63405;BME280;49541;57.840;12.306;2023-03-01T09:34:42;102158.16;;;3.26;76.72
63405;BME280;49541;57.840;12.306;2023-03-01T09:40:04;102156.41;;;3.53;74.67
63405;BME280;49541;57.840;12.306;2023-03-01T09:45:06;102156.25;;;3.58;74.36
63405;BME280;49541;57.840;12.306;2023-03-01T09:50:14;102135.81;;;3.91;73.24
63405;BME280;49541;57.840;12.306;2023-03-01T09:55:28;102146.00;;;4.02;71.82
63405;BME280;49541;57.840;12.306;2023-03-01T10:00:36;102149.56;;;4.26;70.85
63405;BME280;49541;57.840;12.306;2023-03-01T10:10:42;102150.19;;;4.33;69.72
63405;BME280;49541;57.840;12.306;2023-03-01T10:15:45;102135.66;;;4.69;69.93
63405;BME280;49541;57.840;12.306;2023-03-01T10:20:51;102130.97;;;5.00;68.19
63405;BME280;49541;57.840;12.306;2023-03-01T10:30:52;102130.44;;;6.00;64.57
63405;BME280;49541;57.840;12.306;2023-03-01T10:35:53;102137.28;;;6.25;62.96
63405;BME280;49541;57.840;12.306;2023-03-01T10:41:00;102150.09;;;6.54;61.83
63405;BME280;49541;57.840;12.306;2023-03-01T10:46:10;102137.00;;;6.89;60.48
63405;BME280;49541;57.840;12.306;2023-03-01T10:51:21;102136.94;;;7.46;58.45
63405;BME280;49541;57.840;12.306;2023-03-01T10:56:21;102132.81;;;8.10;56.86
63405;BME280;49541;57.840;12.306;2023-03-01T11:06:22;102135.09;;;9.32;52.84
63405;BME280;49541;57.840;12.306;2023-03-01T11:11:23;102130.75;;;9.92;50.12
63405;BME280;49541;57.840;12.306;2023-03-01T11:16:38;102125.47;;;10.20;49.06
63405;BME280;49541;57.840;12.306;2023-03-01T11:26:43;102131.97;;;11.82;43.45
63405;BME280;49541;57.840;12.306;2023-03-01T11:31:44;102127.09;;;12.79;41.35
63405;BME280;49541;57.840;12.306;2023-03-01T11:36:56;102125.06;;;13.19;38.87
63405;BME280;49541;57.840;12.306;2023-03-01T11:42:02;102130.50;;;13.18;39.57
63405;BME280;49541;57.840;12.306;2023-03-01T12:02:35;102117.88;;;15.05;35.14
63405;BME280;49541;57.840;12.306;2023-03-01T12:28:19;102093.81;;;16.62;32.42
63405;BME280;49541;57.840;12.306;2023-03-01T12:33:25;102085.75;;;17.70;29.81
63405;BME280;49541;57.840;12.306;2023-03-01T12:49:19;102088.00;;;17.85;30.04
63405;BME280;49541;57.840;12.306;2023-03-01T12:54:39;102083.69;;;18.49;28.98
63405;BME280;49541;57.840;12.306;2023-03-01T12:59:46;102082.63;;;18.69;28.29
63405;BME280;49541;57.840;12.306;2023-03-01T13:15:01;102048.97;;;19.27;28.45
63405;BME280;49541;57.840;12.306;2023-03-01T13:20:01;102051.16;;;19.86;27.17
63405;BME280;49541;57.840;12.306;2023-03-01T13:25:11;102050.63;;;20.42;26.19
63405;BME280;49541;57.840;12.306;2023-03-01T13:30:58;102047.00;;;20.60;25.78
63405;BME280;49541;57.840;12.306;2023-03-01T13:35:43;102039.44;;;20.88;25.33
63405;BME280;49541;57.840;12.306;2023-03-01T13:45:50;102030.38;;;21.38;24.96
63405;BME280;49541;57.840;12.306;2023-03-01T13:50:52;102009.88;;;21.11;24.35
63405;BME280;49541;57.840;12.306;2023-03-01T13:55:58;102005.84;;;21.32;24.43
63405;BME280;49541;57.840;12.306;2023-03-01T14:01:04;102008.84;;;21.61;23.64
63405;BME280;49541;57.840;12.306;2023-03-01T14:06:09;101998.69;;;21.22;24.17
63405;BME280;49541;57.840;12.306;2023-03-01T14:16:21;101988.06;;;21.04;24.12
63405;BME280;49541;57.840;12.306;2023-03-01T14:21:24;101988.19;;;20.70;24.86
63405;BME280;49541;57.840;12.306;2023-03-01T14:26:25;101997.53;;;21.09;23.89
63405;BME280;49541;57.840;12.306;2023-03-01T14:31:31;101997.81;;;20.73;24.23
63405;BME280;49541;57.840;12.306;2023-03-01T14:36:33;101994.31;;;21.13;23.03
63405;BME280;49541;57.840;12.306;2023-03-01T14:41:34;101986.78;;;20.58;23.37
63405;BME280;49541;57.840;12.306;2023-03-01T14:46:36;101977.72;;;20.83;24.19
63405;BME280;49541;57.840;12.306;2023-03-01T14:51:38;101980.38;;;20.59;23.97
63405;BME280;49541;57.840;12.306;2023-03-01T14:56:45;101984.00;;;21.17;23.77
63405;BME280;49541;57.840;12.306;2023-03-01T15:01:45;101983.78;;;21.67;21.95
63405;BME280;49541;57.840;12.306;2023-03-01T15:06:46;101977.59;;;21.98;21.34
63405;BME280;49541;57.840;12.306;2023-03-01T15:11:47;101972.47;;;21.47;22.81
63405;BME280;49541;57.840;12.306;2023-03-01T15:16:48;101973.31;;;21.56;22.26
63405;BME280;49541;57.840;12.306;2023-03-01T15:21:49;101977.59;;;21.98;21.46
63405;BME280;49541;57.840;12.306;2023-03-01T15:26:51;101975.00;;;21.41;22.41
63405;BME280;49541;57.840;12.306;2023-03-01T15:31:55;101973.16;;;21.58;21.75
63405;BME280;49541;57.840;12.306;2023-03-01T15:36:56;101963.13;;;21.75;21.89
63405;BME280;49541;57.840;12.306;2023-03-01T15:41:58;101963.50;;;21.22;22.78
63405;BME280;49541;57.840;12.306;2023-03-01T15:46:59;101958.44;;;21.11;22.71
63405;BME280;49541;57.840;12.306;2023-03-01T15:51:59;101945.53;;;20.64;23.46
63405;BME280;49541;57.840;12.306;2023-03-01T15:56:59;101949.13;;;20.14;23.50
63405;BME280;49541;57.840;12.306;2023-03-01T16:01:59;101962.03;;;19.68;24.19
63405;BME280;49541;57.840;12.306;2023-03-01T16:07:00;101944.22;;;19.05;25.63
63405;BME280;49541;57.840;12.306;2023-03-01T16:12:01;101945.88;;;18.52;26.03
63405;BME280;49541;57.840;12.306;2023-03-01T16:17:01;101946.25;;;17.74;26.52
63405;BME280;49541;57.840;12.306;2023-03-01T16:22:01;101946.19;;;16.49;28.74
63405;BME280;49541;57.840;12.306;2023-03-01T16:27:02;101951.63;;;15.56;29.84
63405;BME280;49541;57.840;12.306;2023-03-01T16:32:02;101951.59;;;14.72;31.36
63405;BME280;49541;57.840;12.306;2023-03-01T16:37:02;101947.56;;;14.12;32.59
63405;BME280;49541;57.840;12.306;2023-03-01T16:42:02;101960.94;;;13.67;33.63
63405;BME280;49541;57.840;12.306;2023-03-01T16:47:03;101956.53;;;12.84;34.92
63405;BME280;49541;57.840;12.306;2023-03-01T16:52:03;101950.13;;;12.38;35.56
63405;BME280;49541;57.840;12.306;2023-03-01T16:57:03;101951.63;;;11.93;36.43
63405;BME280;49541;57.840;12.306;2023-03-01T17:02:04;101955.31;;;11.26;37.23
63405;BME280;49541;57.840;12.306;2023-03-01T17:07:06;101962.72;;;10.68;38.02
63405;BME280;49541;57.840;12.306;2023-03-01T17:12:06;101955.31;;;10.32;39.08
63405;BME280;49541;57.840;12.306;2023-03-01T17:17:09;101963.22;;;9.17;41.63
63405;BME280;49541;57.840;12.306;2023-03-01T17:22:10;101956.72;;;8.76;42.47
63405;BME280;49541;57.840;12.306;2023-03-01T17:27:12;101961.19;;;8.28;44.22
63405;BME280;49541;57.840;12.306;2023-03-01T17:32:13;101966.72;;;8.08;44.84
63405;BME280;49541;57.840;12.306;2023-03-01T17:37:13;101974.78;;;7.89;45.56
63405;BME280;49541;57.840;12.306;2023-03-01T17:42:13;101972.94;;;7.91;45.87
63405;BME280;49541;57.840;12.306;2023-03-01T17:47:13;101985.16;;;7.60;46.70
63405;BME280;49541;57.840;12.306;2023-03-01T17:52:13;101980.81;;;7.07;48.40
63405;BME280;49541;57.840;12.306;2023-03-01T17:57:14;101980.28;;;6.81;48.77
63405;BME280;49541;57.840;12.306;2023-03-01T18:02:14;101986.19;;;6.69;49.20
63405;BME280;49541;57.840;12.306;2023-03-01T18:07:14;101985.72;;;6.42;50.23
63405;BME280;49541;57.840;12.306;2023-03-01T18:12:14;101983.84;;;5.66;52.75
63405;BME280;49541;57.840;12.306;2023-03-01T18:17:14;101982.75;;;5.09;54.52
63405;BME280;49541;57.840;12.306;2023-03-01T18:22:15;101972.72;;;4.53;56.44
63405;BME280;49541;57.840;12.306;2023-03-01T18:27:15;101975.16;;;4.57;57.04
63405;BME280;49541;57.840;12.306;2023-03-01T18:32:15;101978.66;;;4.58;57.02
63405;BME280;49541;57.840;12.306;2023-03-01T18:37:16;101973.56;;;4.31;58.23
63405;BME280;49541;57.840;12.306;2023-03-01T18:42:17;101979.28;;;4.19;58.31
63405;BME280;49541;57.840;12.306;2023-03-01T18:47:19;101973.44;;;4.34;58.08
63405;BME280;49541;57.840;12.306;2023-03-01T18:52:19;101969.09;;;4.09;58.26
63405;BME280;49541;57.840;12.306;2023-03-01T18:57:19;101966.75;;;4.02;59.02
63405;BME280;49541;57.840;12.306;2023-03-01T19:02:19;101972.41;;;3.91;59.26
63405;BME280;49541;57.840;12.306;2023-03-01T19:07:20;101970.16;;;3.32;61.40
63405;BME280;49541;57.840;12.306;2023-03-01T19:12:20;101974.41;;;3.09;61.96
63405;BME280;49541;57.840;12.306;2023-03-01T19:17:21;101984.03;;;2.83;63.66
63405;BME280;49541;57.840;12.306;2023-03-01T19:22:23;101977.66;;;3.17;62.77
63405;BME280;49541;57.840;12.306;2023-03-01T19:27:25;101978.41;;;3.96;59.52
63405;BME280;49541;57.840;12.306;2023-03-01T19:32:25;101979.63;;;3.62;59.31
63405;BME280;49541;57.840;12.306;2023-03-01T19:37:25;101973.47;;;3.37;60.38
63405;BME280;49541;57.840;12.306;2023-03-01T19:42:25;101978.47;;;3.19;61.46
63405;BME280;49541;57.840;12.306;2023-03-01T19:47:27;101985.56;;;3.17;61.56
63405;BME280;49541;57.840;12.306;2023-03-01T19:52:27;101987.25;;;3.18;61.19
63405;BME280;49541;57.840;12.306;2023-03-01T19:57:27;101994.03;;;2.99;61.11
63405;BME280;49541;57.840;12.306;2023-03-01T20:02:27;101994.06;;;3.25;59.93
63405;BME280;49541;57.840;12.306;2023-03-01T20:07:28;101994.38;;;3.16;61.10
63405;BME280;49541;57.840;12.306;2023-03-01T20:12:28;101996.19;;;3.66;58.87
63405;BME280;49541;57.840;12.306;2023-03-01T20:17:28;101994.97;;;3.49;59.93
63405;BME280;49541;57.840;12.306;2023-03-01T20:22:28;101994.31;;;3.18;60.61
63405;BME280;49541;57.840;12.306;2023-03-01T20:27:28;101997.50;;;3.01;61.55
63405;BME280;49541;57.840;12.306;2023-03-01T20:32:29;101999.50;;;2.66;62.31
63405;BME280;49541;57.840;12.306;2023-03-01T20:37:29;101984.69;;;2.90;61.76
63405;BME280;49541;57.840;12.306;2023-03-01T20:42:29;101987.25;;;2.65;62.83
63405;BME280;49541;57.840;12.306;2023-03-01T20:47:30;101988.47;;;2.25;63.81
63405;BME280;49541;57.840;12.306;2023-03-01T20:52:30;101987.16;;;2.10;64.71
63405;BME280;49541;57.840;12.306;2023-03-01T20:57:30;101988.53;;;2.52;63.77
63405;BME280;49541;57.840;12.306;2023-03-01T21:02:30;101985.06;;;3.06;61.92
63405;BME280;49541;57.840;12.306;2023-03-01T21:07:31;101985.63;;;2.61;62.45
63405;BME280;49541;57.840;12.306;2023-03-01T21:12:31;101981.03;;;1.47;66.04
63405;BME280;49541;57.840;12.306;2023-03-01T21:17:31;101975.84;;;1.77;65.78
63405;BME280;49541;57.840;12.306;2023-03-01T21:22:31;101984.94;;;1.31;68.51
63405;BME280;49541;57.840;12.306;2023-03-01T21:27:36;101981.69;;;1.87;66.38
63405;BME280;49541;57.840;12.306;2023-03-01T21:32:37;101968.16;;;1.69;66.81
63405;BME280;49541;57.840;12.306;2023-03-01T21:37:37;101981.09;;;1.44;67.46
63405;BME280;49541;57.840;12.306;2023-03-01T21:42:37;101967.81;;;1.50;67.77
63405;BME280;49541;57.840;12.306;2023-03-01T21:47:38;101968.25;;;1.97;66.55
63405;BME280;49541;57.840;12.306;2023-03-01T21:52:39;101964.63;;;2.59;64.85
63405;BME280;49541;57.840;12.306;2023-03-01T21:57:39;101968.16;;;2.30;64.82
63405;BME280;49541;57.840;12.306;2023-03-01T22:02:42;101971.13;;;1.57;68.44
63405;BME280;49541;57.840;12.306;2023-03-01T22:07:42;101974.59;;;1.25;69.85
63405;BME280;49541;57.840;12.306;2023-03-01T22:12:43;101973.28;;;1.74;68.53
63405;BME280;49541;57.840;12.306;2023-03-01T22:17:43;101969.69;;;2.09;67.30
63405;BME280;49541;57.840;12.306;2023-03-01T22:22:43;101969.41;;;1.87;67.82
63405;BME280;49541;57.840;12.306;2023-03-01T22:27:43;101958.66;;;1.65;68.72
63405;BME280;49541;57.840;12.306;2023-03-01T22:32:43;101947.09;;;1.39;70.47
63405;BME280;49541;57.840;12.306;2023-03-01T22:37:44;101957.88;;;1.29;71.45
63405;BME280;49541;57.840;12.306;2023-03-01T22:42:44;101957.09;;;0.55;74.04
63405;BME280;49541;57.840;12.306;2023-03-01T22:47:45;101945.59;;;1.63;73.20
63405;BME280;49541;57.840;12.306;2023-03-01T22:52:45;101948.53;;;2.12;68.91
63405;BME280;49541;57.840;12.306;2023-03-01T22:57:48;101948.03;;;1.37;71.36
63405;BME280;49541;57.840;12.306;2023-03-01T23:02:48;101944.59;;;1.35;72.29
63405;BME280;49541;57.840;12.306;2023-03-01T23:07:48;101960.28;;;2.00;70.20
63405;BME280;49541;57.840;12.306;2023-03-01T23:12:49;101960.47;;;1.94;68.05
63405;BME280;49541;57.840;12.306;2023-03-01T23:17:49;101955.84;;;2.02;68.45
63405;BME280;49541;57.840;12.306;2023-03-01T23:22:49;101956.66;;;1.75;69.18
63405;BME280;49541;57.840;12.306;2023-03-01T23:27:49;101959.63;;;1.94;69.38
63405;BME280;49541;57.840;12.306;2023-03-01T23:32:49;101951.31;;;1.76;69.39
63405;BME280;49541;57.840;12.306;2023-03-01T23:37:52;101957.81;;;1.96;68.25
63405;BME280;49541;57.840;12.306;2023-03-01T23:42:52;101951.81;;;2.49;67.07
63405;BME280;49541;57.840;12.306;2023-03-01T23:47:52;101958.50;;;1.71;68.95
63405;BME280;49541;57.840;12.306;2023-03-01T23:52:53;101954.25;;;1.97;68.60
63405;BME280;49541;57.840;12.306;2023-03-01T23:57:54;101949.78;;;2.00;69.68
